sensor_id;sensor_type;location;lat;lon;timestamp;P1;durP1;ratioP1;P2;durP2;ratioP2
7729;SDS011;3908;52.310;7.230;2023-09-08T00:00:07;172.03;;;164.13;;
7729;SDS011;3908;52.310;7.230;2023-09-08T00:02:56;163.07;;;155.57;;
7729;SDS011;3908;52.310;7.230;2023-09-08T00:05:43;147.40;;;140.67;;
7729;SDS011;3908;52.310;7.230;2023-09-08T00:08:29;127.73;;;122.00;;
7729;SDS011;3908;52.310;7.230;2023-09-08T00:11:16;127.10;;;121.17;;
7729;SDS011;3908;52.310;7.230;2023-09-08T00:14:03;117.27;;;111.60;;
7729;SDS011;3908;52.310;7.230;2023-09-08T00:16:52;112.73;;;107.03;;
7729;SDS011;3908;52.310;7.230;2023-09-08T00:19:40;106.93;;;101.83;;
7729;SDS011;3908;52.310;7.230;2023-09-08T00:22:26;134.40;;;128.10;;
7729;SDS011;3908;52.310;7.230;2023-09-08T00:25:13;138.77;;;132.37;;
7729;SDS011;3908;52.310;7.230;2023-09-08T00:28:00;165.33;;;157.60;;
7729;SDS011;3908;52.310;7.230;2023-09-08T00:30:47;177.20;;;168.70;;
7729;SDS011;3908;52.310;7.230;2023-09-08T00:33:35;187.20;;;178.43;;
7729;SDS011;3908;52.310;7.230;2023-09-08T00:36:22;191.63;;;182.73;;
7729;SDS011;3908;52.310;7.230;2023-09-08T00:39:09;206.40;;;196.80;;
7729;SDS011;3908;52.310;7.230;2023-09-08T00:41:56;190.50;;;181.40;;
7729;SDS011;3908;52.310;7.230;2023-09-08T00:44:43;159.10;;;151.57;;
7729;SDS011;3908;52.310;7.230;2023-09-08T00:47:30;138.23;;;131.80;;
7729;SDS011;3908;52.310;7.230;2023-09-08T00:50:18;127.87;;;122.17;;
7729;SDS011;3908;52.310;7.230;2023-09-08T00:53:05;121.67;;;116.03;;
7729;SDS011;3908;52.310;7.230;2023-09-08T00:55:52;105.97;;;100.97;;
7729;SDS011;3908;52.310;7.230;2023-09-08T00:58:39;95.20;;;90.70;;
7729;SDS011;3908;52.310;7.230;2023-09-08T01:01:26;87.50;;;83.00;;
7729;SDS011;3908;52.310;7.230;2023-09-08T01:04:13;86.33;;;82.13;;
7729;SDS011;3908;52.310;7.230;2023-09-08T01:07:01;83.97;;;79.77;;
7729;SDS011;3908;52.310;7.230;2023-09-08T01:09:48;75.03;;;70.90;;
7729;SDS011;3908;52.310;7.230;2023-09-08T01:12:35;74.70;;;70.80;;
7729;SDS011;3908;52.310;7.230;2023-09-08T01:15:23;80.33;;;76.23;;
7729;SDS011;3908;52.310;7.230;2023-09-08T01:18:09;76.47;;;72.50;;
7729;SDS011;3908;52.310;7.230;2023-09-08T01:21:11;79.13;;;75.03;;
7729;SDS011;3908;52.310;7.230;2023-09-08T01:24:06;80.60;;;76.40;;
7729;SDS011;3908;52.310;7.230;2023-09-08T01:26:59;82.97;;;78.83;;
7729;SDS011;3908;52.310;7.230;2023-09-08T01:29:47;108.10;;;103.10;;
7729;SDS011;3908;52.310;7.230;2023-09-08T01:32:34;99.43;;;94.70;;
7729;SDS011;3908;52.310;7.230;2023-09-08T01:35:21;75.33;;;71.60;;
7729;SDS011;3908;52.310;7.230;2023-09-08T01:38:08;50.47;;;47.17;;
7729;SDS011;3908;52.310;7.230;2023-09-08T01:40:54;49.47;;;46.73;;
7729;SDS011;3908;52.310;7.230;2023-09-08T01:43:42;55.07;;;52.03;;
7729;SDS011;3908;52.310;7.230;2023-09-08T01:46:29;51.97;;;49.07;;
7729;SDS011;3908;52.310;7.230;2023-09-08T01:49:16;45.37;;;42.87;;
7729;SDS011;3908;52.310;7.230;2023-09-08T01:52:03;41.60;;;39.13;;
7729;SDS011;3908;52.310;7.230;2023-09-08T01:54:50;65.43;;;61.87;;
7729;SDS011;3908;52.310;7.230;2023-09-08T01:57:36;69.77;;;66.00;;
7729;SDS011;3908;52.310;7.230;2023-09-08T02:00:25;54.50;;;51.07;;
7729;SDS011;3908;52.310;7.230;2023-09-08T02:03:11;47.53;;;44.93;;
7729;SDS011;3908;52.310;7.230;2023-09-08T02:05:58;35.57;;;33.33;;
7729;SDS011;3908;52.310;7.230;2023-09-08T02:08:45;44.73;;;41.77;;
7729;SDS011;3908;52.310;7.230;2023-09-08T02:11:32;49.83;;;47.10;;
7729;SDS011;3908;52.310;7.230;2023-09-08T02:14:18;49.83;;;46.93;;
7729;SDS011;3908;52.310;7.230;2023-09-08T02:17:07;56.93;;;53.83;;
7729;SDS011;3908;52.310;7.230;2023-09-08T02:19:53;47.43;;;44.53;;
7729;SDS011;3908;52.310;7.230;2023-09-08T02:22:40;33.93;;;31.70;;
7729;SDS011;3908;52.310;7.230;2023-09-08T02:25:27;40.83;;;38.37;;
7729;SDS011;3908;52.310;7.230;2023-09-08T02:28:15;52.30;;;49.40;;
7729;SDS011;3908;52.310;7.230;2023-09-08T02:31:02;48.90;;;46.20;;
7729;SDS011;3908;52.310;7.230;2023-09-08T02:33:50;70.37;;;66.77;;
7729;SDS011;3908;52.310;7.230;2023-09-08T02:36:37;76.90;;;72.90;;
7729;SDS011;3908;52.310;7.230;2023-09-08T02:39:24;89.13;;;84.30;;
7729;SDS011;3908;52.310;7.230;2023-09-08T02:42:12;140.37;;;133.20;;
7729;SDS011;3908;52.310;7.230;2023-09-08T02:44:59;142.40;;;135.40;;
7729;SDS011;3908;52.310;7.230;2023-09-08T02:47:45;81.73;;;77.43;;
7729;SDS011;3908;52.310;7.230;2023-09-08T02:50:33;88.13;;;83.70;;
7729;SDS011;3908;52.310;7.230;2023-09-08T02:53:20;84.23;;;80.13;;
7729;SDS011;3908;52.310;7.230;2023-09-08T02:56:07;66.80;;;62.70;;
7729;SDS011;3908;52.310;7.230;2023-09-08T02:58:54;80.00;;;75.30;;
7729;SDS011;3908;52.310;7.230;2023-09-08T03:01:41;87.50;;;82.83;;
7729;SDS011;3908;52.310;7.230;2023-09-08T03:04:28;90.03;;;85.40;;
7729;SDS011;3908;52.310;7.230;2023-09-08T03:07:16;93.47;;;88.07;;
7729;SDS011;3908;52.310;7.230;2023-09-08T03:10:03;131.77;;;124.30;;
7729;SDS011;3908;52.310;7.230;2023-09-08T03:12:50;135.73;;;127.63;;
7729;SDS011;3908;52.310;7.230;2023-09-08T03:15:37;132.63;;;125.03;;
7729;SDS011;3908;52.310;7.230;2023-09-08T03:18:23;128.67;;;121.33;;
7729;SDS011;3908;52.310;7.230;2023-09-08T03:21:13;135.20;;;127.83;;
7729;SDS011;3908;52.310;7.230;2023-09-08T03:24:01;114.00;;;107.67;;
7729;SDS011;3908;52.310;7.230;2023-09-08T03:26:48;105.20;;;99.07;;
7729;SDS011;3908;52.310;7.230;2023-09-08T03:29:35;90.60;;;85.63;;
7729;SDS011;3908;52.310;7.230;2023-09-08T03:32:22;90.20;;;85.10;;
7729;SDS011;3908;52.310;7.230;2023-09-08T03:35:10;109.57;;;103.40;;
7729;SDS011;3908;52.310;7.230;2023-09-08T03:37:57;107.30;;;101.47;;
7729;SDS011;3908;52.310;7.230;2023-09-08T03:40:45;98.43;;;92.97;;
7729;SDS011;3908;52.310;7.230;2023-09-08T03:43:32;119.13;;;112.23;;
7729;SDS011;3908;52.310;7.230;2023-09-08T03:46:19;132.80;;;125.13;;
7729;SDS011;3908;52.310;7.230;2023-09-08T03:49:05;137.17;;;129.20;;
7729;SDS011;3908;52.310;7.230;2023-09-08T03:51:53;143.23;;;135.27;;
7729;SDS011;3908;52.310;7.230;2023-09-08T03:54:40;137.03;;;129.07;;
7729;SDS011;3908;52.310;7.230;2023-09-08T03:57:28;148.83;;;140.03;;
7729;SDS011;3908;52.310;7.230;2023-09-08T04:00:15;154.93;;;145.87;;
7729;SDS011;3908;52.310;7.230;2023-09-08T04:03:07;152.97;;;144.13;;
7729;SDS011;3908;52.310;7.230;2023-09-08T04:05:55;152.57;;;143.90;;
7729;SDS011;3908;52.310;7.230;2023-09-08T04:08:41;156.57;;;147.57;;
7729;SDS011;3908;52.310;7.230;2023-09-08T04:11:28;151.07;;;142.07;;
7729;SDS011;3908;52.310;7.230;2023-09-08T04:14:16;148.43;;;140.20;;
7729;SDS011;3908;52.310;7.230;2023-09-08T04:17:03;163.93;;;154.63;;
7729;SDS011;3908;52.310;7.230;2023-09-08T04:19:50;165.80;;;156.17;;
7729;SDS011;3908;52.310;7.230;2023-09-08T04:22:37;168.23;;;158.53;;
7729;SDS011;3908;52.310;7.230;2023-09-08T04:25:27;159.17;;;150.13;;
7729;SDS011;3908;52.310;7.230;2023-09-08T04:28:14;165.63;;;156.17;;
7729;SDS011;3908;52.310;7.230;2023-09-08T04:31:02;155.93;;;147.00;;
7729;SDS011;3908;52.310;7.230;2023-09-08T04:33:49;154.80;;;145.63;;
7729;SDS011;3908;52.310;7.230;2023-09-08T04:36:35;124.87;;;117.67;;
7729;SDS011;3908;52.310;7.230;2023-09-08T04:39:22;130.70;;;123.30;;
7729;SDS011;3908;52.310;7.230;2023-09-08T04:42:09;139.40;;;131.70;;
7729;SDS011;3908;52.310;7.230;2023-09-08T04:44:56;146.33;;;138.00;;
7729;SDS011;3908;52.310;7.230;2023-09-08T04:47:44;133.97;;;126.43;;
7729;SDS011;3908;52.310;7.230;2023-09-08T04:50:32;123.63;;;116.70;;
7729;SDS011;3908;52.310;7.230;2023-09-08T04:53:21;126.10;;;118.90;;
7729;SDS011;3908;52.310;7.230;2023-09-08T04:56:08;120.00;;;113.40;;
7729;SDS011;3908;52.310;7.230;2023-09-08T04:58:55;110.57;;;104.27;;
7729;SDS011;3908;52.310;7.230;2023-09-08T05:01:43;93.97;;;88.40;;
7729;SDS011;3908;52.310;7.230;2023-09-08T05:04:31;79.77;;;75.20;;
7729;SDS011;3908;52.310;7.230;2023-09-08T05:07:18;70.73;;;66.60;;
7729;SDS011;3908;52.310;7.230;2023-09-08T05:10:05;75.93;;;71.60;;
7729;SDS011;3908;52.310;7.230;2023-09-08T05:12:52;126.33;;;119.53;;
7729;SDS011;3908;52.310;7.230;2023-09-08T05:15:39;142.20;;;134.50;;
7729;SDS011;3908;52.310;7.230;2023-09-08T05:18:28;139.37;;;132.07;;
7729;SDS011;3908;52.310;7.230;2023-09-08T05:21:16;123.90;;;116.87;;
7729;SDS011;3908;52.310;7.230;2023-09-08T05:24:03;98.43;;;92.90;;
7729;SDS011;3908;52.310;7.230;2023-09-08T05:26:50;88.37;;;83.47;;
7729;SDS011;3908;52.310;7.230;2023-09-08T05:29:37;75.70;;;71.70;;
7729;SDS011;3908;52.310;7.230;2023-09-08T05:32:23;73.40;;;69.13;;
7729;SDS011;3908;52.310;7.230;2023-09-08T05:35:10;74.80;;;70.97;;
7729;SDS011;3908;52.310;7.230;2023-09-08T05:37:58;77.53;;;73.33;;
7729;SDS011;3908;52.310;7.230;2023-09-08T05:40:45;74.33;;;70.20;;
7729;SDS011;3908;52.310;7.230;2023-09-08T05:43:32;68.43;;;64.83;;
7729;SDS011;3908;52.310;7.230;2023-09-08T05:46:18;66.97;;;63.13;;
7729;SDS011;3908;52.310;7.230;2023-09-08T05:49:05;67.83;;;64.20;;
7729;SDS011;3908;52.310;7.230;2023-09-08T05:51:52;70.87;;;66.93;;
7729;SDS011;3908;52.310;7.230;2023-09-08T05:54:41;64.87;;;61.07;;
7729;SDS011;3908;52.310;7.230;2023-09-08T05:57:27;46.97;;;44.07;;
7729;SDS011;3908;52.310;7.230;2023-09-08T06:00:14;43.00;;;40.23;;
7729;SDS011;3908;52.310;7.230;2023-09-08T06:03:02;38.57;;;36.17;;
7729;SDS011;3908;52.310;7.230;2023-09-08T06:05:49;37.07;;;34.73;;
7729;SDS011;3908;52.310;7.230;2023-09-08T06:08:35;39.90;;;37.37;;
7729;SDS011;3908;52.310;7.230;2023-09-08T06:11:23;39.03;;;36.60;;
7729;SDS011;3908;52.310;7.230;2023-09-08T06:14:10;44.80;;;41.90;;
7729;SDS011;3908;52.310;7.230;2023-09-08T06:16:57;42.97;;;40.47;;
7729;SDS011;3908;52.310;7.230;2023-09-08T06:19:44;46.27;;;43.43;;
7729;SDS011;3908;52.310;7.230;2023-09-08T06:22:31;57.43;;;54.07;;
7729;SDS011;3908;52.310;7.230;2023-09-08T06:25:17;79.23;;;74.53;;
7729;SDS011;3908;52.310;7.230;2023-09-08T06:28:06;86.50;;;81.10;;
7729;SDS011;3908;52.310;7.230;2023-09-08T06:30:53;124.27;;;116.80;;
7729;SDS011;3908;52.310;7.230;2023-09-08T06:33:40;156.67;;;146.90;;
7729;SDS011;3908;52.310;7.230;2023-09-08T06:36:27;200.30;;;187.43;;
7729;SDS011;3908;52.310;7.230;2023-09-08T06:39:13;234.50;;;219.47;;
7729;SDS011;3908;52.310;7.230;2023-09-08T06:42:00;281.43;;;263.53;;
7729;SDS011;3908;52.310;7.230;2023-09-08T06:44:48;262.75;;;246.40;;
7729;SDS011;3908;52.310;7.230;2023-09-08T06:47:35;265.92;;;250.25;;
7729;SDS011;3908;52.310;7.230;2023-09-08T06:50:22;219.00;;;206.68;;
7729;SDS011;3908;52.310;7.230;2023-09-08T06:53:08;188.75;;;178.52;;
7729;SDS011;3908;52.310;7.230;2023-09-08T06:55:56;173.55;;;164.75;;
7729;SDS011;3908;52.310;7.230;2023-09-08T06:58:42;182.50;;;173.95;;
7729;SDS011;3908;52.310;7.230;2023-09-08T07:01:31;148.95;;;141.73;;
7729;SDS011;3908;52.310;7.230;2023-09-08T07:04:18;109.40;;;104.13;;
7729;SDS011;3908;52.310;7.230;2023-09-08T07:07:04;96.85;;;91.68;;
7729;SDS011;3908;52.310;7.230;2023-09-08T07:09:52;83.95;;;79.32;;
7729;SDS011;3908;52.310;7.230;2023-09-08T07:12:39;114.80;;;109.00;;
7729;SDS011;3908;52.310;7.230;2023-09-08T07:15:26;144.32;;;137.25;;
7729;SDS011;3908;52.310;7.230;2023-09-08T07:18:14;213.82;;;203.18;;
7729;SDS011;3908;52.310;7.230;2023-09-08T07:21:01;279.90;;;265.90;;
7729;SDS011;3908;52.310;7.230;2023-09-08T07:23:47;305.73;;;289.33;;
7729;SDS011;3908;52.310;7.230;2023-09-08T07:26:34;338.92;;;319.65;;
7729;SDS011;3908;52.310;7.230;2023-09-08T07:29:21;358.83;;;338.48;;
7729;SDS011;3908;52.310;7.230;2023-09-08T07:32:08;321.05;;;303.60;;
7729;SDS011;3908;52.310;7.230;2023-09-08T07:34:56;363.35;;;342.58;;
7729;SDS011;3908;52.310;7.230;2023-09-08T07:37:43;388.58;;;364.00;;
7729;SDS011;3908;52.310;7.230;2023-09-08T07:40:30;294.30;;;276.35;;
7729;SDS011;3908;52.310;7.230;2023-09-08T07:43:16;309.27;;;290.05;;
7729;SDS011;3908;52.310;7.230;2023-09-08T07:46:03;211.73;;;200.45;;
7729;SDS011;3908;52.310;7.230;2023-09-08T07:48:52;216.50;;;205.95;;
7729;SDS011;3908;52.310;7.230;2023-09-08T07:51:42;174.98;;;165.63;;
7729;SDS011;3908;52.310;7.230;2023-09-08T07:54:29;214.35;;;202.95;;
7729;SDS011;3908;52.310;7.230;2023-09-08T07:57:15;224.30;;;212.65;;
7729;SDS011;3908;52.310;7.230;2023-09-08T08:00:03;299.88;;;283.88;;
7729;SDS011;3908;52.310;7.230;2023-09-08T08:02:51;355.80;;;336.52;;
7729;SDS011;3908;52.310;7.230;2023-09-08T08:05:38;373.40;;;352.83;;
7729;SDS011;3908;52.310;7.230;2023-09-08T08:08:26;383.35;;;362.17;;
7729;SDS011;3908;52.310;7.230;2023-09-08T08:11:16;314.17;;;296.75;;
7729;SDS011;3908;52.310;7.230;2023-09-08T08:14:03;350.45;;;330.58;;
7729;SDS011;3908;52.310;7.230;2023-09-08T08:16:50;309.98;;;292.42;;
7729;SDS011;3908;52.310;7.230;2023-09-08T08:19:36;329.35;;;310.00;;
7729;SDS011;3908;52.310;7.230;2023-09-08T08:22:23;318.98;;;300.13;;
7729;SDS011;3908;52.310;7.230;2023-09-08T08:25:11;333.42;;;313.35;;
7729;SDS011;3908;52.310;7.230;2023-09-08T08:27:59;317.73;;;301.20;;
7729;SDS011;3908;52.310;7.230;2023-09-08T08:30:46;278.33;;;264.33;;
7729;SDS011;3908;52.310;7.230;2023-09-08T08:33:33;273.52;;;260.55;;
7729;SDS011;3908;52.310;7.230;2023-09-08T08:36:20;251.57;;;239.55;;
7729;SDS011;3908;52.310;7.230;2023-09-08T08:39:06;249.18;;;237.50;;
7729;SDS011;3908;52.310;7.230;2023-09-08T08:41:55;205.07;;;195.32;;
7729;SDS011;3908;52.310;7.230;2023-09-08T08:44:41;180.48;;;172.20;;
7729;SDS011;3908;52.310;7.230;2023-09-08T08:47:29;199.05;;;189.30;;
7729;SDS011;3908;52.310;7.230;2023-09-08T08:50:16;205.32;;;195.48;;
7729;SDS011;3908;52.310;7.230;2023-09-08T08:53:03;184.30;;;175.07;;
7729;SDS011;3908;52.310;7.230;2023-09-08T08:55:50;255.27;;;243.10;;
7729;SDS011;3908;52.310;7.230;2023-09-08T08:58:42;254.55;;;241.48;;
7729;SDS011;3908;52.310;7.230;2023-09-08T09:01:29;237.45;;;225.80;;
7729;SDS011;3908;52.310;7.230;2023-09-08T09:04:16;244.13;;;232.50;;
7729;SDS011;3908;52.310;7.230;2023-09-08T09:07:03;257.98;;;245.88;;
7729;SDS011;3908;52.310;7.230;2023-09-08T09:09:50;236.02;;;224.80;;
7729;SDS011;3908;52.310;7.230;2023-09-08T09:12:38;233.23;;;222.35;;
7729;SDS011;3908;52.310;7.230;2023-09-08T09:15:29;206.38;;;197.07;;
7729;SDS011;3908;52.310;7.230;2023-09-08T09:18:17;198.30;;;189.43;;
7729;SDS011;3908;52.310;7.230;2023-09-08T09:21:04;184.80;;;176.40;;
7729;SDS011;3908;52.310;7.230;2023-09-08T09:23:51;185.23;;;176.90;;
7729;SDS011;3908;52.310;7.230;2023-09-08T09:26:38;196.10;;;186.82;;
7729;SDS011;3908;52.310;7.230;2023-09-08T09:29:25;212.07;;;202.20;;
7729;SDS011;3908;52.310;7.230;2023-09-08T09:32:13;264.92;;;252.07;;
7729;SDS011;3908;52.310;7.230;2023-09-08T09:35:00;255.18;;;242.32;;
7729;SDS011;3908;52.310;7.230;2023-09-08T09:37:48;267.05;;;252.88;;
7729;SDS011;3908;52.310;7.230;2023-09-08T09:40:36;299.83;;;283.58;;
7729;SDS011;3908;52.310;7.230;2023-09-08T09:43:23;317.08;;;299.38;;
7729;SDS011;3908;52.310;7.230;2023-09-08T09:46:10;354.48;;;333.65;;
7729;SDS011;3908;52.310;7.230;2023-09-08T09:48:58;345.85;;;326.10;;
7729;SDS011;3908;52.310;7.230;2023-09-08T09:51:45;356.58;;;335.40;;
7729;SDS011;3908;52.310;7.230;2023-09-08T09:54:32;339.20;;;319.55;;
7729;SDS011;3908;52.310;7.230;2023-09-08T09:57:19;313.88;;;296.02;;
7729;SDS011;3908;52.310;7.230;2023-09-08T10:00:07;316.25;;;298.70;;
7729;SDS011;3908;52.310;7.230;2023-09-08T10:02:54;313.77;;;296.52;;
7729;SDS011;3908;52.310;7.230;2023-09-08T10:05:43;301.15;;;284.50;;
7729;SDS011;3908;52.310;7.230;2023-09-08T10:08:33;293.55;;;277.05;;
7729;SDS011;3908;52.310;7.230;2023-09-08T10:11:22;281.63;;;266.17;;
7729;SDS011;3908;52.310;7.230;2023-09-08T10:14:09;269.67;;;255.30;;
7729;SDS011;3908;52.310;7.230;2023-09-08T10:16:59;230.05;;;218.35;;
7729;SDS011;3908;52.310;7.230;2023-09-08T10:19:47;215.23;;;204.45;;
7729;SDS011;3908;52.310;7.230;2023-09-08T10:22:41;203.32;;;193.40;;
7729;SDS011;3908;52.310;7.230;2023-09-08T10:25:28;238.30;;;226.05;;
7729;SDS011;3908;52.310;7.230;2023-09-08T10:28:18;213.23;;;202.95;;
7729;SDS011;3908;52.310;7.230;2023-09-08T10:31:05;200.40;;;191.05;;
7729;SDS011;3908;52.310;7.230;2023-09-08T10:33:53;196.05;;;187.18;;
7729;SDS011;3908;52.310;7.230;2023-09-08T10:36:40;160.65;;;153.65;;
7729;SDS011;3908;52.310;7.230;2023-09-08T10:39:29;168.10;;;160.55;;
7729;SDS011;3908;52.310;7.230;2023-09-08T10:42:23;152.50;;;145.77;;
7729;SDS011;3908;52.310;7.230;2023-09-08T10:45:15;128.48;;;122.68;;
7729;SDS011;3908;52.310;7.230;2023-09-08T10:48:02;107.80;;;102.97;;
7729;SDS011;3908;52.310;7.230;2023-09-08T10:50:49;112.93;;;107.93;;
7729;SDS011;3908;52.310;7.230;2023-09-08T10:53:36;102.70;;;97.38;;
7729;SDS011;3908;52.310;7.230;2023-09-08T10:56:28;120.25;;;114.82;;
7729;SDS011;3908;52.310;7.230;2023-09-08T10:59:15;119.38;;;113.97;;
7729;SDS011;3908;52.310;7.230;2023-09-08T11:02:03;114.38;;;108.97;;
7729;SDS011;3908;52.310;7.230;2023-09-08T11:04:50;115.65;;;110.40;;
7729;SDS011;3908;52.310;7.230;2023-09-08T11:07:36;118.38;;;112.70;;
7729;SDS011;3908;52.310;7.230;2023-09-08T11:10:23;116.88;;;111.22;;
7729;SDS011;3908;52.310;7.230;2023-09-08T11:13:12;123.32;;;117.35;;
7729;SDS011;3908;52.310;7.230;2023-09-08T11:15:58;137.05;;;130.63;;
7729;SDS011;3908;52.310;7.230;2023-09-08T11:18:46;149.07;;;142.05;;
7729;SDS011;3908;52.310;7.230;2023-09-08T11:21:32;141.35;;;134.85;;
7729;SDS011;3908;52.310;7.230;2023-09-08T11:24:20;152.63;;;145.55;;
7729;SDS011;3908;52.310;7.230;2023-09-08T11:27:07;141.00;;;134.40;;
7729;SDS011;3908;52.310;7.230;2023-09-08T11:29:55;135.23;;;129.07;;
7729;SDS011;3908;52.310;7.230;2023-09-08T11:32:42;153.07;;;146.10;;
7729;SDS011;3908;52.310;7.230;2023-09-08T11:35:31;155.85;;;148.40;;
7729;SDS011;3908;52.310;7.230;2023-09-08T11:38:18;229.68;;;219.20;;
7729;SDS011;3908;52.310;7.230;2023-09-08T11:41:05;244.07;;;232.98;;
7729;SDS011;3908;52.310;7.230;2023-09-08T11:43:52;241.15;;;229.90;;
7729;SDS011;3908;52.310;7.230;2023-09-08T11:46:40;254.15;;;242.75;;
7729;SDS011;3908;52.310;7.230;2023-09-08T11:49:32;253.20;;;241.80;;
7729;SDS011;3908;52.310;7.230;2023-09-08T11:52:22;246.07;;;234.48;;
7729;SDS011;3908;52.310;7.230;2023-09-08T11:55:09;238.85;;;227.85;;
7729;SDS011;3908;52.310;7.230;2023-09-08T11:57:56;225.23;;;214.75;;
7729;SDS011;3908;52.310;7.230;2023-09-08T12:00:44;233.40;;;222.80;;
7729;SDS011;3908;52.310;7.230;2023-09-08T12:03:34;224.80;;;214.30;;
7729;SDS011;3908;52.310;7.230;2023-09-08T12:06:23;215.77;;;206.05;;
7729;SDS011;3908;52.310;7.230;2023-09-08T12:09:10;204.05;;;194.77;;
7729;SDS011;3908;52.310;7.230;2023-09-08T12:11:57;198.32;;;189.32;;
7729;SDS011;3908;52.310;7.230;2023-09-08T12:14:45;203.93;;;194.85;;
7729;SDS011;3908;52.310;7.230;2023-09-08T12:17:31;246.18;;;235.10;;
7729;SDS011;3908;52.310;7.230;2023-09-08T12:20:20;247.20;;;236.10;;
7729;SDS011;3908;52.310;7.230;2023-09-08T12:23:15;250.40;;;239.10;;
7729;SDS011;3908;52.310;7.230;2023-09-08T12:26:02;251.48;;;240.15;;
7729;SDS011;3908;52.310;7.230;2023-09-08T12:28:48;251.65;;;240.20;;
7729;SDS011;3908;52.310;7.230;2023-09-08T12:31:35;254.95;;;243.48;;
7729;SDS011;3908;52.310;7.230;2023-09-08T12:34:22;253.25;;;241.93;;
7729;SDS011;3908;52.310;7.230;2023-09-08T12:37:11;261.98;;;250.32;;
7729;SDS011;3908;52.310;7.230;2023-09-08T12:39:57;252.07;;;240.68;;
7729;SDS011;3908;52.310;7.230;2023-09-08T12:42:46;251.02;;;239.70;;
7729;SDS011;3908;52.310;7.230;2023-09-08T12:45:33;245.27;;;234.18;;
7729;SDS011;3908;52.310;7.230;2023-09-08T12:48:20;253.90;;;242.48;;
7729;SDS011;3908;52.310;7.230;2023-09-08T12:51:06;246.85;;;235.68;;
7729;SDS011;3908;52.310;7.230;2023-09-08T12:53:54;246.45;;;235.18;;
7729;SDS011;3908;52.310;7.230;2023-09-08T12:56:41;253.88;;;242.23;;
7729;SDS011;3908;52.310;7.230;2023-09-08T12:59:28;227.07;;;216.52;;
7729;SDS011;3908;52.310;7.230;2023-09-08T13:02:15;235.13;;;224.23;;
7729;SDS011;3908;52.310;7.230;2023-09-08T13:05:01;224.85;;;214.43;;
7729;SDS011;3908;52.310;7.230;2023-09-08T13:07:48;226.15;;;215.55;;
7729;SDS011;3908;52.310;7.230;2023-09-08T13:10:36;168.90;;;161.07;;
7729;SDS011;3908;52.310;7.230;2023-09-08T13:13:23;117.10;;;111.63;;
7729;SDS011;3908;52.310;7.230;2023-09-08T13:16:10;115.18;;;109.50;;
7729;SDS011;3908;52.310;7.230;2023-09-08T13:18:57;85.13;;;80.88;;
7729;SDS011;3908;52.310;7.230;2023-09-08T13:21:43;84.28;;;80.20;;
7729;SDS011;3908;52.310;7.230;2023-09-08T13:24:30;58.35;;;55.15;;
7729;SDS011;3908;52.310;7.230;2023-09-08T13:27:18;65.00;;;61.40;;
7729;SDS011;3908;52.310;7.230;2023-09-08T13:30:08;52.53;;;49.95;;
7729;SDS011;3908;52.310;7.230;2023-09-08T13:32:55;60.88;;;57.72;;
7729;SDS011;3908;52.310;7.230;2023-09-08T13:35:42;53.38;;;50.63;;
7729;SDS011;3908;52.310;7.230;2023-09-08T13:38:29;51.08;;;48.28;;
7729;SDS011;3908;52.310;7.230;2023-09-08T13:41:16;82.50;;;78.60;;
7729;SDS011;3908;52.310;7.230;2023-09-08T13:44:04;69.38;;;65.82;;
7729;SDS011;3908;52.310;7.230;2023-09-08T13:46:51;62.50;;;59.33;;
7729;SDS011;3908;52.310;7.230;2023-09-08T13:49:39;65.30;;;62.03;;
7729;SDS011;3908;52.310;7.230;2023-09-08T13:52:26;67.18;;;63.90;;
7729;SDS011;3908;52.310;7.230;2023-09-08T13:55:12;70.35;;;66.95;;
7729;SDS011;3908;52.310;7.230;2023-09-08T13:57:59;74.18;;;70.57;;
7729;SDS011;3908;52.310;7.230;2023-09-08T14:00:47;76.15;;;72.55;;
7729;SDS011;3908;52.310;7.230;2023-09-08T14:03:35;74.68;;;71.15;;
7729;SDS011;3908;52.310;7.230;2023-09-08T14:06:22;72.13;;;68.57;;
7729;SDS011;3908;52.310;7.230;2023-09-08T14:09:09;69.80;;;66.45;;
7729;SDS011;3908;52.310;7.230;2023-09-08T14:11:56;85.65;;;81.32;;
7729;SDS011;3908;52.310;7.230;2023-09-08T14:14:42;102.03;;;97.53;;
7729;SDS011;3908;52.310;7.230;2023-09-08T14:17:30;110.15;;;105.20;;
7729;SDS011;3908;52.310;7.230;2023-09-08T14:20:17;121.00;;;115.28;;
7729;SDS011;3908;52.310;7.230;2023-09-08T14:23:04;122.60;;;117.30;;
7729;SDS011;3908;52.310;7.230;2023-09-08T14:25:53;126.35;;;120.60;;
7729;SDS011;3908;52.310;7.230;2023-09-08T14:28:39;130.07;;;124.30;;
7729;SDS011;3908;52.310;7.230;2023-09-08T14:31:26;131.25;;;125.50;;
7729;SDS011;3908;52.310;7.230;2023-09-08T14:34:14;129.68;;;123.97;;
7729;SDS011;3908;52.310;7.230;2023-09-08T14:37:01;121.53;;;115.88;;
7729;SDS011;3908;52.310;7.230;2023-09-08T14:39:48;128.48;;;122.90;;
7729;SDS011;3908;52.310;7.230;2023-09-08T14:42:35;134.05;;;128.05;;
7729;SDS011;3908;52.310;7.230;2023-09-08T14:45:22;136.55;;;130.50;;
7729;SDS011;3908;52.310;7.230;2023-09-08T14:48:09;131.43;;;125.22;;
7729;SDS011;3908;52.310;7.230;2023-09-08T14:50:57;131.98;;;126.13;;
7729;SDS011;3908;52.310;7.230;2023-09-08T14:53:44;130.70;;;125.00;;
7729;SDS011;3908;52.310;7.230;2023-09-08T14:56:31;122.43;;;116.80;;
7729;SDS011;3908;52.310;7.230;2023-09-08T14:59:17;129.05;;;123.35;;
7729;SDS011;3908;52.310;7.230;2023-09-08T15:02:04;125.05;;;119.45;;
7729;SDS011;3908;52.310;7.230;2023-09-08T15:04:51;121.40;;;116.00;;
7729;SDS011;3908;52.310;7.230;2023-09-08T15:07:39;133.35;;;127.38;;
7729;SDS011;3908;52.310;7.230;2023-09-08T15:10:26;138.05;;;131.70;;
7729;SDS011;3908;52.310;7.230;2023-09-08T15:13:13;143.35;;;136.82;;
7729;SDS011;3908;52.310;7.230;2023-09-08T15:15:59;139.63;;;133.32;;
7729;SDS011;3908;52.310;7.230;2023-09-08T15:18:46;147.73;;;140.63;;
7729;SDS011;3908;52.310;7.230;2023-09-08T15:21:33;163.32;;;155.52;;
7729;SDS011;3908;52.310;7.230;2023-09-08T15:24:22;170.45;;;162.18;;
7729;SDS011;3908;52.310;7.230;2023-09-08T15:27:09;178.10;;;169.52;;
7729;SDS011;3908;52.310;7.230;2023-09-08T15:29:56;184.73;;;175.85;;
7729;SDS011;3908;52.310;7.230;2023-09-08T15:32:42;190.40;;;181.13;;
7729;SDS011;3908;52.310;7.230;2023-09-08T15:35:30;202.70;;;192.63;;
7729;SDS011;3908;52.310;7.230;2023-09-08T15:38:17;210.48;;;200.18;;
7729;SDS011;3908;52.310;7.230;2023-09-08T15:41:16;219.57;;;208.82;;
7729;SDS011;3908;52.310;7.230;2023-09-08T15:44:03;223.98;;;213.30;;
7729;SDS011;3908;52.310;7.230;2023-09-08T15:46:50;229.35;;;218.25;;
7729;SDS011;3908;52.310;7.230;2023-09-08T15:49:37;228.18;;;216.80;;
7729;SDS011;3908;52.310;7.230;2023-09-08T15:52:24;226.93;;;215.80;;
7729;SDS011;3908;52.310;7.230;2023-09-08T15:55:11;242.60;;;230.63;;
7729;SDS011;3908;52.310;7.230;2023-09-08T15:57:59;250.07;;;237.85;;
7729;SDS011;3908;52.310;7.230;2023-09-08T16:00:45;248.50;;;236.20;;
7729;SDS011;3908;52.310;7.230;2023-09-08T16:03:32;239.15;;;227.40;;
7729;SDS011;3908;52.310;7.230;2023-09-08T16:06:19;252.65;;;239.77;;
7729;SDS011;3908;52.310;7.230;2023-09-08T16:09:06;248.63;;;236.65;;
7729;SDS011;3908;52.310;7.230;2023-09-08T16:11:53;247.43;;;235.38;;
7729;SDS011;3908;52.310;7.230;2023-09-08T16:14:41;244.80;;;233.13;;
7729;SDS011;3908;52.310;7.230;2023-09-08T16:17:31;249.23;;;237.43;;
7729;SDS011;3908;52.310;7.230;2023-09-08T16:20:17;250.15;;;237.75;;
7729;SDS011;3908;52.310;7.230;2023-09-08T16:23:04;242.45;;;230.93;;
7729;SDS011;3908;52.310;7.230;2023-09-08T16:25:52;249.88;;;237.90;;